createdAt,value
2018-09-19T00:02:12.879Z,2.80
2018-09-19T00:04:41.380Z,3.03
2018-09-19T00:07:09.815Z,3.13
2018-09-19T00:09:38.945Z,3.00
2018-09-19T00:12:07.485Z,3.17
2018-09-19T00:14:35.918Z,3.07
2018-09-19T00:17:04.658Z,2.97
2018-09-19T00:19:33.090Z,2.67
2018-09-19T00:22:01.479Z,3.07
2018-09-19T00:24:29.868Z,2.80
2018-09-19T00:26:58.527Z,3.00
2018-09-19T00:29:28.345Z,2.93
2018-09-19T00:31:56.822Z,3.07
2018-09-19T00:34:25.365Z,2.90
2018-09-19T00:36:53.752Z,2.80
2018-09-19T00:39:22.370Z,2.70
2018-09-19T00:41:50.957Z,3.20
2018-09-19T00:44:19.598Z,3.10
2018-09-19T00:46:48.025Z,3.13
2018-09-19T00:49:16.410Z,2.73
2018-09-19T00:51:44.794Z,2.90
2018-09-19T00:54:13.184Z,2.90
2018-09-19T00:56:41.945Z,3.10
2018-09-19T00:59:10.369Z,2.93
2018-09-19T01:01:39.045Z,2.90
2018-09-19T01:04:07.999Z,2.80
2018-09-19T01:06:36.367Z,2.90
2018-09-19T01:09:07.012Z,3.17
2018-09-19T01:11:35.536Z,3.37
2018-09-19T01:14:03.963Z,3.17
2018-09-19T01:16:32.664Z,3.53
2018-09-19T01:19:01.040Z,3.33
2018-09-19T01:21:29.434Z,3.33
2018-09-19T01:23:57.815Z,3.33
2018-09-19T01:26:26.891Z,3.33
2018-09-19T01:28:55.287Z,3.30
2018-09-19T01:31:23.699Z,3.17
2018-09-19T01:33:52.436Z,3.47
2018-09-19T01:36:20.855Z,3.73
2018-09-19T01:38:49.320Z,3.90
2018-09-19T01:41:17.656Z,3.60
2018-09-19T01:43:46.779Z,3.90
2018-09-19T01:46:15.182Z,3.90
2018-09-19T01:48:44.071Z,3.63
2018-09-19T01:51:13.401Z,3.83
2018-09-19T01:53:41.955Z,3.90
2018-09-19T01:56:10.618Z,4.07
2018-09-19T01:58:39.238Z,3.90
2018-09-19T02:01:07.864Z,4.20
2018-09-19T02:03:37.329Z,4.10
2018-09-19T02:06:06.002Z,4.10
2018-09-19T02:08:35.136Z,4.10
2018-09-19T02:11:03.569Z,4.07
2018-09-19T02:13:31.989Z,3.53
2018-09-19T02:16:00.916Z,4.03
2018-09-19T02:18:29.490Z,4.13
2018-09-19T02:20:58.759Z,3.80
2018-09-19T02:23:27.145Z,4.03
2018-09-19T02:25:55.525Z,3.63
2018-09-19T02:28:23.976Z,3.97
2018-09-19T02:30:52.453Z,4.37
2018-09-19T02:33:21.570Z,4.23
2018-09-19T02:35:49.966Z,4.33
2018-09-19T02:38:18.350Z,4.10
2018-09-19T02:40:46.825Z,4.50
2018-09-19T02:43:15.249Z,3.67
2018-09-19T02:45:43.649Z,4.07
2018-09-19T02:48:12.479Z,4.03
2018-09-19T02:50:40.893Z,4.10
2018-09-19T02:53:09.373Z,4.00
2018-09-19T02:55:37.780Z,3.90
2018-09-19T02:58:06.368Z,3.77
2018-09-19T03:00:34.919Z,3.80
2018-09-19T03:03:03.392Z,3.93
2018-09-19T03:05:32.137Z,3.80
2018-09-19T03:08:00.890Z,3.50
2018-09-19T03:10:29.359Z,3.90
2018-09-19T03:12:58.358Z,3.80
2018-09-19T03:15:26.871Z,3.70
2018-09-19T03:17:55.413Z,3.73
2018-09-19T03:20:24.255Z,4.00
2018-09-19T03:22:52.844Z,3.70
2018-09-19T03:25:21.220Z,4.10
2018-09-19T03:27:49.671Z,4.40
2018-09-19T03:30:18.375Z,4.80
2018-09-19T03:32:47.059Z,4.90
2018-09-19T03:35:15.499Z,4.53
2018-09-19T03:37:44.116Z,4.60
2018-09-19T03:40:12.645Z,4.87
2018-09-19T03:42:41.325Z,4.97
2018-09-19T03:45:10.099Z,4.70
2018-09-19T03:47:38.852Z,4.33
2018-09-19T03:50:07.291Z,4.53
2018-09-19T03:52:35.716Z,4.80
2018-09-19T03:55:04.646Z,4.63
2018-09-19T03:57:33.375Z,4.50
2018-09-19T04:00:02.165Z,4.57
2018-09-19T04:02:30.641Z,4.50
2018-09-19T04:04:59.030Z,5.00
2018-09-19T04:07:27.458Z,4.70
2018-09-19T04:09:56.476Z,4.50
2018-09-19T04:12:24.909Z,4.40
2018-09-19T04:14:53.318Z,4.80
2018-09-19T04:17:21.707Z,4.73
2018-09-19T04:19:50.113Z,4.87
2018-09-19T04:22:18.487Z,5.00
2018-09-19T04:24:47.067Z,4.40
2018-09-19T04:27:16.110Z,4.50
2018-09-19T04:29:45.085Z,4.70
2018-09-19T04:32:13.579Z,5.10
2018-09-19T04:34:41.938Z,4.53
2018-09-19T04:37:10.306Z,4.40
2018-09-19T04:39:39.027Z,5.10
2018-09-19T04:42:07.793Z,5.43
2018-09-19T04:44:36.581Z,5.40
2018-09-19T04:47:05.578Z,5.43
2018-09-19T04:49:34.682Z,5.70
2018-09-19T04:52:03.290Z,5.63
2018-09-19T04:54:31.720Z,5.53
2018-09-19T04:57:00.708Z,5.87
2018-09-19T04:59:29.118Z,6.27
2018-09-19T05:01:58.546Z,5.30
2018-09-19T05:04:27.130Z,5.10
2018-09-19T05:06:56.082Z,4.73
2018-09-19T05:09:24.529Z,4.60
2018-09-19T05:11:52.939Z,5.30
2018-09-19T05:14:21.338Z,6.07
2018-09-19T05:16:50.311Z,5.77
2018-09-19T05:19:19.097Z,5.57
2018-09-19T05:21:47.754Z,5.83
2018-09-19T05:24:16.230Z,5.67
2018-09-19T05:26:44.616Z,5.37
2018-09-19T05:29:13.060Z,6.20
2018-09-19T05:31:41.481Z,5.60
2018-09-19T05:34:09.870Z,5.60
2018-09-19T05:36:38.511Z,6.10
2018-09-19T05:39:07.892Z,6.17
2018-09-19T05:41:37.399Z,6.93
2018-09-19T05:44:06.132Z,6.93
2018-09-19T05:46:34.551Z,7.07
2018-09-19T05:49:03.311Z,7.53
2018-09-19T05:51:31.689Z,6.70
2018-09-19T05:54:00.698Z,5.97
2018-09-19T05:56:29.086Z,5.93
2018-09-19T05:58:57.527Z,6.37
2018-09-19T06:01:25.889Z,5.63
2018-09-19T06:03:54.453Z,5.50
2018-09-19T06:06:22.882Z,5.17
2018-09-19T06:08:51.836Z,4.67
2018-09-19T06:11:20.322Z,5.00
2018-09-19T06:13:49.091Z,5.10
2018-09-19T06:16:17.729Z,4.87
2018-09-19T06:18:46.419Z,4.40
2018-09-19T06:21:14.900Z,4.50
2018-09-19T06:23:43.326Z,4.23
2018-09-19T06:26:12.306Z,4.77
2018-09-19T06:28:40.833Z,4.50
2018-09-19T06:31:09.227Z,4.50
2018-09-19T06:33:37.677Z,4.70
2018-09-19T06:36:06.205Z,5.30
2018-09-19T06:38:34.623Z,5.20
2018-09-19T06:41:03.313Z,5.10
2018-09-19T06:43:32.321Z,4.50
2018-09-19T06:46:01.029Z,5.27
2018-09-19T06:48:29.708Z,5.13
2018-09-19T06:50:58.200Z,4.43
2018-09-19T06:53:26.656Z,4.87
2018-09-19T06:55:55.190Z,5.13
2018-09-19T06:58:30.236Z,4.83
2018-09-19T07:00:58.768Z,4.90
2018-09-19T07:03:27.336Z,4.47
2018-09-19T07:05:57.066Z,4.70
2018-09-19T07:08:25.804Z,4.50
2018-09-19T07:10:54.274Z,4.13
2018-09-19T07:13:22.684Z,4.07
2018-09-19T07:15:51.102Z,4.10
2018-09-19T07:18:19.925Z,4.23
2018-09-19T07:20:48.354Z,4.30
2018-09-19T07:23:16.970Z,4.20
2018-09-19T07:25:45.353Z,4.50
2018-09-19T07:28:13.809Z,4.37
2018-09-19T07:30:42.317Z,4.10
2018-09-19T07:33:10.688Z,4.70
2018-09-19T07:35:39.489Z,4.43
2018-09-19T07:38:07.886Z,4.63
2018-09-19T07:40:36.305Z,4.13
2018-09-19T07:43:05.334Z,4.50
2018-09-19T07:45:34.723Z,4.80
2018-09-19T07:48:03.165Z,4.30
2018-09-19T07:50:31.694Z,4.87
2018-09-19T07:53:02.994Z,4.50
2018-09-19T07:55:33.048Z,5.13
2018-09-19T07:58:02.049Z,4.77
2018-09-19T08:00:30.961Z,4.50
2018-09-19T08:02:59.218Z,4.57
2018-09-19T08:05:27.813Z,4.70
2018-09-19T08:07:56.237Z,4.80
2018-09-19T08:10:24.827Z,4.17
2018-09-19T08:12:53.488Z,4.07
2018-09-19T08:15:22.087Z,4.70
2018-09-19T08:17:50.570Z,4.97
2018-09-19T08:20:19.250Z,4.40
2018-09-19T08:22:47.933Z,4.90
2018-09-19T08:25:16.203Z,5.20
2018-09-19T08:27:45.472Z,5.13
2018-09-19T08:30:14.094Z,5.20
2018-09-19T08:32:42.518Z,5.40
2018-09-19T08:35:11.198Z,5.33
2018-09-19T08:37:39.591Z,5.37
2018-09-19T08:40:08.621Z,5.27
2018-09-19T08:42:37.136Z,4.90
2018-09-19T08:45:05.729Z,5.20
2018-09-19T08:47:34.670Z,4.93
2018-09-19T08:50:03.303Z,4.80
2018-09-19T08:52:31.743Z,5.00
2018-09-19T08:55:00.477Z,5.10
2018-09-19T08:57:29.285Z,4.80
2018-09-19T08:59:58.008Z,4.67
2018-09-19T09:02:26.901Z,5.13
2018-09-19T09:04:55.506Z,4.83
2018-09-19T09:07:24.262Z,5.10
2018-09-19T09:09:52.654Z,5.37
2018-09-19T09:12:21.270Z,4.83
2018-09-19T09:14:50.438Z,5.20
2018-09-19T09:17:18.864Z,4.70
2018-09-19T09:19:47.537Z,5.33
2018-09-19T09:22:15.959Z,5.15
2018-09-19T09:24:44.711Z,5.40
2018-09-19T09:27:13.445Z,5.08
2018-09-19T09:29:41.870Z,5.30
2018-09-19T09:32:10.870Z,5.05
2018-09-19T09:34:39.289Z,5.10
2018-09-19T09:37:07.888Z,4.58
2018-09-19T09:39:37.163Z,4.87
2018-09-19T09:42:05.708Z,4.60
2018-09-19T09:44:34.463Z,4.65
2018-09-19T09:47:03.215Z,5.20
2018-09-19T09:49:31.918Z,5.72
2018-09-19T09:52:00.559Z,5.35
2018-09-19T09:54:28.925Z,5.30
2018-09-19T09:56:57.654Z,6.10
2018-09-19T09:59:26.136Z,6.17
2018-09-19T10:01:54.584Z,5.33
2018-09-19T10:04:23.395Z,5.87
2018-09-19T10:06:52.125Z,5.70
2018-09-19T10:09:20.585Z,6.08
2018-09-19T10:11:49.191Z,6.03
2018-09-19T10:14:17.680Z,5.87
2018-09-19T10:16:46.253Z,6.40
2018-09-19T10:19:14.642Z,6.22
2018-09-19T10:21:43.246Z,6.87
2018-09-19T10:24:11.700Z,7.00
2018-09-19T10:26:40.861Z,6.62
2018-09-19T10:29:09.483Z,6.72
2018-09-19T10:31:38.248Z,5.78
2018-09-19T10:34:06.844Z,5.85
2018-09-19T10:36:35.595Z,6.33
2018-09-19T10:39:05.306Z,6.03
2018-09-19T10:41:33.989Z,7.15
2018-09-19T10:44:02.521Z,7.30
2018-09-19T10:46:31.453Z,7.17
2018-09-19T10:49:00.180Z,7.05
2018-09-19T10:51:28.817Z,7.50
2018-09-19T10:53:57.373Z,6.30
2018-09-19T10:56:25.833Z,7.25
2018-09-19T10:58:54.375Z,6.47
2018-09-19T11:01:23.126Z,5.78
2018-09-19T11:03:51.627Z,6.08
2018-09-19T11:06:20.179Z,4.35
2018-09-19T11:08:48.913Z,4.87
2018-09-19T11:11:17.482Z,5.08
2018-09-19T11:13:46.073Z,5.00
2018-09-19T11:16:14.455Z,5.12
2018-09-19T11:18:42.968Z,4.95
2018-09-19T11:21:11.760Z,4.90
2018-09-19T11:23:40.713Z,4.45
2018-09-19T11:26:09.389Z,5.07
2018-09-19T11:28:38.049Z,4.67
2018-09-19T11:31:06.817Z,4.33
2018-09-19T11:33:35.950Z,5.03
2018-09-19T11:36:04.450Z,4.80
2018-09-19T11:38:33.036Z,4.60
2018-09-19T11:41:01.647Z,4.17
2018-09-19T11:43:30.095Z,4.23
2018-09-19T11:46:00.382Z,4.43
2018-09-19T11:48:28.981Z,4.73
2018-09-19T11:50:57.620Z,4.60
2018-09-19T11:53:28.061Z,4.37
2018-09-19T11:55:57.824Z,4.37
2018-09-19T11:58:26.973Z,4.50
2018-09-19T12:00:55.429Z,4.60
2018-09-19T12:03:24.123Z,4.37
2018-09-19T12:05:53.740Z,3.90
2018-09-19T12:08:22.107Z,4.60
2018-09-19T12:10:50.681Z,4.13
2018-09-19T12:13:19.124Z,4.60
2018-09-19T12:15:47.537Z,4.10
2018-09-19T12:18:16.106Z,4.10
2018-09-19T12:20:44.643Z,4.53
2018-09-19T12:23:13.689Z,4.40
2018-09-19T12:25:42.085Z,4.03
2018-09-19T12:28:10.484Z,4.10
2018-09-19T12:30:39.539Z,3.90
2018-09-19T12:33:08.701Z,4.03
2018-09-19T12:35:37.090Z,3.80
2018-09-19T12:38:05.602Z,3.47
2018-09-19T12:40:34.027Z,3.40
2018-09-19T12:43:02.976Z,3.80
2018-09-19T12:45:31.577Z,3.97
2018-09-19T12:48:00.839Z,3.60
2018-09-19T12:50:30.046Z,3.90
2018-09-19T12:52:58.453Z,3.60
2018-09-19T12:55:26.959Z,3.80
2018-09-19T12:57:55.535Z,3.63
2018-09-19T13:00:23.934Z,3.50
2018-09-19T13:02:52.583Z,3.60
2018-09-19T13:05:20.988Z,3.40
2018-09-19T13:07:49.658Z,3.77
2018-09-19T13:10:18.610Z,3.20
2018-09-19T13:12:47.073Z,3.33
2018-09-19T13:15:15.602Z,3.53
2018-09-19T13:17:43.985Z,3.63
2018-09-19T13:20:12.480Z,3.40
2018-09-19T13:22:40.936Z,3.50
2018-09-19T13:25:09.357Z,3.50
2018-09-19T13:27:38.029Z,3.20
2018-09-19T13:30:06.475Z,3.20
2018-09-19T13:32:35.776Z,3.37
2018-09-19T13:35:04.258Z,3.27
2018-09-19T13:37:32.923Z,2.87
2018-09-19T13:40:01.397Z,3.10
2018-09-19T13:42:30.446Z,3.80
2018-09-19T13:44:59.068Z,3.70
2018-09-19T13:47:27.620Z,3.20
2018-09-19T13:50:07.632Z,3.27
2018-09-19T13:52:36.037Z,3.13
2018-09-19T13:55:04.660Z,3.17
2018-09-19T13:57:33.106Z,3.00
2018-09-19T14:00:01.660Z,3.00
2018-09-19T14:02:30.094Z,2.97
2018-09-19T14:04:58.968Z,2.90
2018-09-19T14:07:27.777Z,2.70
2018-09-19T14:09:56.238Z,2.83
2018-09-19T14:12:25.807Z,3.17
2018-09-19T14:14:54.261Z,2.90
2018-09-19T14:17:22.845Z,2.90
2018-09-19T14:19:51.270Z,2.60
2018-09-19T14:22:19.807Z,2.87
2018-09-19T14:24:48.928Z,2.93
2018-09-19T14:27:17.485Z,2.80
2018-09-19T14:29:46.924Z,3.00
2018-09-19T14:32:16.392Z,3.10
2018-09-19T14:34:44.939Z,2.70
2018-09-19T14:37:13.785Z,3.03
2018-09-19T14:39:42.195Z,3.00
2018-09-19T14:42:10.926Z,3.00
2018-09-19T14:44:39.539Z,2.80
2018-09-19T14:47:07.956Z,2.80
2018-09-19T14:49:43.343Z,2.80
2018-09-19T14:52:11.885Z,3.10
2018-09-19T14:54:41.002Z,2.80
2018-09-19T14:57:09.444Z,2.80
2018-09-19T14:59:37.938Z,2.87
2018-09-19T15:02:07.022Z,3.20
2018-09-19T15:04:35.611Z,3.03
2018-09-19T15:07:04.799Z,3.23
2018-09-19T15:09:33.232Z,2.90
2018-09-19T15:12:01.849Z,2.90
2018-09-19T15:14:31.358Z,3.10
2018-09-19T15:16:59.894Z,3.20
2018-09-19T15:19:28.545Z,3.10
2018-09-19T15:21:57.196Z,3.50
2018-09-19T15:24:25.687Z,3.63
2018-09-19T15:26:54.068Z,2.90
2018-09-19T15:29:23.042Z,3.13
2018-09-19T15:31:52.043Z,3.07
2018-09-19T15:34:20.577Z,3.00
2018-09-19T15:36:48.993Z,2.90
2018-09-19T15:39:17.405Z,3.03
2018-09-19T15:41:45.834Z,2.73
2018-09-19T15:44:14.254Z,3.30
2018-09-19T15:46:42.667Z,2.93
2018-09-19T15:49:11.360Z,3.30
2018-09-19T15:51:39.965Z,2.90
2018-09-19T15:54:08.399Z,3.20
2018-09-19T15:56:37.036Z,2.97
2018-09-19T15:59:06.245Z,3.37
2018-09-19T16:01:35.637Z,3.10
2018-09-19T16:04:05.251Z,3.13
2018-09-19T16:06:36.255Z,2.97
2018-09-19T16:09:06.510Z,3.00
2018-09-19T16:11:35.099Z,3.07
2018-09-19T16:14:03.978Z,3.40
2018-09-19T16:16:32.615Z,3.70
2018-09-19T16:19:02.078Z,3.50
2018-09-19T16:21:30.533Z,3.40
2018-09-19T16:23:58.950Z,3.00
2018-09-19T16:26:27.382Z,3.37
2018-09-19T16:28:56.017Z,3.57
2018-09-19T16:31:24.475Z,3.10
2018-09-19T16:33:52.874Z,3.37
2018-09-19T16:36:21.969Z,3.23
2018-09-19T16:38:50.625Z,3.97
2018-09-19T16:41:19.291Z,3.60
2018-09-19T16:43:47.744Z,3.57
2018-09-19T16:46:16.203Z,3.70
2018-09-19T16:48:44.988Z,3.80
2018-09-19T16:51:13.718Z,3.70
2018-09-19T16:53:42.179Z,3.50
2018-09-19T16:56:10.644Z,4.00
2018-09-19T16:58:39.150Z,4.27
2018-09-19T17:01:07.595Z,4.20
2018-09-19T17:03:36.481Z,4.20
2018-09-19T17:06:04.877Z,4.13
2018-09-19T17:08:33.360Z,4.53
2018-09-19T17:11:01.773Z,4.70
2018-09-19T17:13:30.467Z,4.87
2018-09-19T17:15:59.302Z,4.87
2018-09-19T17:18:27.864Z,4.83
2018-09-19T17:20:57.050Z,4.23
2018-09-19T17:23:25.717Z,4.00
2018-09-19T17:25:54.394Z,4.70
2018-09-19T17:28:23.252Z,4.67
2018-09-19T17:30:51.740Z,4.63
2018-09-19T17:33:20.381Z,4.70
2018-09-19T17:35:48.844Z,4.80
2018-09-19T17:38:17.456Z,4.70
2018-09-19T17:40:46.006Z,4.80
2018-09-19T17:43:14.626Z,5.10
2018-09-19T17:45:43.126Z,4.97
2018-09-19T17:48:11.638Z,5.27
2018-09-19T17:50:40.227Z,5.27
2018-09-19T17:53:08.735Z,5.30
2018-09-19T17:55:37.886Z,5.50
2018-09-19T17:58:06.648Z,5.20
2018-09-19T18:00:35.642Z,5.70
2018-09-19T18:03:04.661Z,5.73
2018-09-19T18:05:33.306Z,5.60
2018-09-19T18:08:01.833Z,5.43
2018-09-19T18:10:30.899Z,5.50
2018-09-19T18:12:59.336Z,5.90
2018-09-19T18:15:27.769Z,5.83
2018-09-19T18:17:56.236Z,5.97
2018-09-19T18:20:24.937Z,6.80
2018-09-19T18:22:53.660Z,6.43
2018-09-19T18:25:22.193Z,5.87
2018-09-19T18:27:51.030Z,6.37
2018-09-19T18:30:19.954Z,6.50
2018-09-19T18:32:48.380Z,6.17
2018-09-19T18:35:16.992Z,6.33
2018-09-19T18:37:45.622Z,5.77
2018-09-19T18:40:14.223Z,5.90
2018-09-19T18:42:42.851Z,5.90
2018-09-19T18:45:11.529Z,6.37
2018-09-19T18:47:40.231Z,6.10
2018-09-19T18:50:08.925Z,6.30
2018-09-19T18:52:37.905Z,6.43
2018-09-19T18:55:06.468Z,6.43
2018-09-19T18:57:34.910Z,5.90
2018-09-19T19:00:03.826Z,6.50
2018-09-19T19:02:33.050Z,6.90
2018-09-19T19:05:01.556Z,6.27
2018-09-19T19:07:30.762Z,6.77
2018-09-19T19:09:59.392Z,6.83
2018-09-19T19:12:27.801Z,7.03
2018-09-19T19:14:56.588Z,6.90
2018-09-19T19:17:25.077Z,6.97
2018-09-19T19:19:53.531Z,7.10
2018-09-19T19:22:21.946Z,7.30
2018-09-19T19:24:51.488Z,6.70
2018-09-19T19:27:20.168Z,6.83
2018-09-19T19:29:48.806Z,7.00
2018-09-19T19:32:17.433Z,7.70
2018-09-19T19:34:46.160Z,7.77
2018-09-19T19:37:15.002Z,7.60
2018-09-19T19:39:44.145Z,7.50
2018-09-19T19:42:13.294Z,7.67
2018-09-19T19:44:41.789Z,7.20
2018-09-19T19:47:10.410Z,7.40
2018-09-19T19:49:39.532Z,7.67
2018-09-19T19:52:08.281Z,7.93
2018-09-19T19:54:36.923Z,7.97
2018-09-19T19:57:05.976Z,8.23
2018-09-19T19:59:34.447Z,7.33
2018-09-19T20:02:03.269Z,7.77
2018-09-19T20:04:32.031Z,7.80
2018-09-19T20:07:00.785Z,8.13
2018-09-19T20:09:29.353Z,8.20
2018-09-19T20:11:57.973Z,8.13
2018-09-19T20:14:26.575Z,7.23
2018-09-19T20:16:55.008Z,8.30
2018-09-19T20:19:23.831Z,8.63
2018-09-19T20:21:52.272Z,8.03
2018-09-19T20:24:20.912Z,8.40
2018-09-19T20:26:49.305Z,8.07
2018-09-19T20:29:17.759Z,7.67
2018-09-19T20:31:46.399Z,8.93
2018-09-19T20:34:15.527Z,8.33
2018-09-19T20:36:44.012Z,8.40
2018-09-19T20:39:12.850Z,8.37
2018-09-19T20:41:41.740Z,8.13
2018-09-19T20:44:10.264Z,8.60
2018-09-19T20:46:38.699Z,8.17
2018-09-19T20:49:07.332Z,8.07
2018-09-19T20:51:36.083Z,8.40
2018-09-19T20:54:04.510Z,8.20
2018-09-19T20:56:33.024Z,8.80
2018-09-19T20:59:01.686Z,8.87
2018-09-19T21:01:31.020Z,8.70
2018-09-19T21:03:59.560Z,9.10
2018-09-19T21:06:28.201Z,8.63
2018-09-19T21:08:56.936Z,9.17
2018-09-19T21:11:25.622Z,8.80
2018-09-19T21:13:54.886Z,8.90
2018-09-19T21:16:23.506Z,8.90
2018-09-19T21:18:52.430Z,9.33
2018-09-19T21:21:21.256Z,9.87
2018-09-19T21:23:49.881Z,9.63
2018-09-19T21:26:19.019Z,9.13
2018-09-19T21:28:47.562Z,9.13
2018-09-19T21:31:15.971Z,10.00
2018-09-19T21:33:44.377Z,9.43
2018-09-19T21:36:12.798Z,9.77
2018-09-19T21:38:41.582Z,9.83
2018-09-19T21:41:09.979Z,9.60
2018-09-19T21:43:38.393Z,11.53
2018-09-19T21:46:07.296Z,12.17
2018-09-19T21:48:35.922Z,10.83
2018-09-19T21:51:04.537Z,10.50
2018-09-19T21:53:33.154Z,10.57
2018-09-19T21:56:02.339Z,10.43
2018-09-19T21:58:30.736Z,9.30
2018-09-19T22:01:04.997Z,10.73
2018-09-19T22:03:33.435Z,10.60
2018-09-19T22:06:02.295Z,9.77
2018-09-19T22:08:31.050Z,9.67
2018-09-19T22:10:59.436Z,10.53
2018-09-19T22:13:27.886Z,10.63
2018-09-19T22:15:56.507Z,10.30
2018-09-19T22:18:24.952Z,11.00
2018-09-19T22:20:53.372Z,10.27
2018-09-19T22:23:22.132Z,10.27
2018-09-19T22:25:51.131Z,9.67
2018-09-19T22:28:19.692Z,10.20
2018-09-19T22:30:48.941Z,10.57
2018-09-19T22:33:17.556Z,10.13
2018-09-19T22:35:46.059Z,10.07
2018-09-19T22:38:14.478Z,10.33
2018-09-19T22:40:43.013Z,10.37
2018-09-19T22:43:11.935Z,10.57
2018-09-19T22:45:40.330Z,10.50
2018-09-19T22:48:08.708Z,11.53
2018-09-19T22:50:37.428Z,11.23
2018-09-19T22:53:05.939Z,11.47
2018-09-19T22:55:34.815Z,11.47
2018-09-19T22:58:03.692Z,12.37
2018-09-19T23:00:32.127Z,12.67
2018-09-19T23:03:00.494Z,11.33
2018-09-19T23:05:28.900Z,12.17
2018-09-19T23:07:57.501Z,12.43
2018-09-19T23:10:26.543Z,12.20
2018-09-19T23:12:54.936Z,12.50
2018-09-19T23:15:23.431Z,13.13
2018-09-19T23:17:51.858Z,13.13
2018-09-19T23:20:20.261Z,12.80
2018-09-19T23:22:48.769Z,13.43
2018-09-19T23:25:17.515Z,12.87
2018-09-19T23:27:46.131Z,13.63
2018-09-19T23:30:14.706Z,13.83
2018-09-19T23:32:43.796Z,13.03
2018-09-19T23:35:12.188Z,13.77
2018-09-19T23:37:40.609Z,13.20
2018-09-19T23:40:08.990Z,13.63
2018-09-19T23:42:37.445Z,13.80
2018-09-19T23:45:06.707Z,14.30
2018-09-19T23:47:35.456Z,13.53
2018-09-19T23:50:03.962Z,13.77
2018-09-19T23:52:32.864Z,14.07
2018-09-19T23:55:01.282Z,13.73
2018-09-19T23:57:30.271Z,13.73
2018-09-19T23:59:59.200Z,13.77
